Etusivu
METAR-TAF:

METAR-TAF

Lentoasemat :

Waco, Texas, Yhdysvallat

Leveyspiiri: 31-38-16N, Pituuspiiri: 097-04-27W, korkeus merenpinnasta: 143 m

Tämänhetkinen sää

Tämä raportti tehtiin 40 minuuttia sitten, kello 16.55 UTC
Tuuli 15 kn etelästä puuskistuen 22 kn:hen
Lämpötila 32°C
Kosteus 63%
Ilmanpaine 1009 hPa
Näkyvyys: 16.1 km
selkeää

METAR: KCNW 201655Z 17015G22KT 10SM SKC 32/24 A2981

Aika: 11:35 (17:35 UTC)


TAF: puuttuu

Säähavainnot ja -ennusteet yli 4000 lentoasemalta (METAR- ja TAF-raportit).

Käytössä olevat sääasemat on merkitty karttaan keltaisilla ja punaisilla pisteillä.

Aseta hiiri pisteen päälle nähdäksesi sääaseman nimen.

Klikkaa sitten nähdäksesi säähavainnot ja -ennusteet.

Kartan vaihtaminen: klikkaa mustalla rastilla varustettuja vihreitä pisteitä, niin voit zoomata sisään; viivalla varustettua vihreää pistettä, niin voit zoomata ulos tai vihreitä nuolia, niin pääset viereisille kartoille.


METAR-TAF: